La Oroya, Peru
Current Conditions -  °F | °C
As of 9:00 AM on Thursday 23 Oct 2014 (Local Time) from SPIM Reporting Station
Overcast Overcast  
Wind Chill: 64°   Ceiling: 1300
Heat Index: 64°   Visibility: 6mi
Dew Point: 59°   Wind: 5mph
Humidity: 83%   Direction: 220°SW
Pressure: 29.97"   Gusts: NA
Location:  11.52°S, 75.94°W
Report Text: SPIM 231400Z 22004KT 170V260 9999 OVC013 18/15 Q1015 NOSIG RMK PP000
Loading
Personal Weather Stations






























Interactive Weather Map
Tropical Storm Tracking
New forecast layout! Learn more

10-Day Weather Forecast

Advertisements
Track Severe Weather on mobile